Time;durP1;ratioP1;P1;durP2;ratioP2;P2;SDS_P1;SDS_P2;PMS_P1;PMS_P2;Temp;Humidity;BMP_temperature;BMP_pressure;BME280_temperature;BME280_humidity;BME280_pressure;Samples;Min_cycle;Max_cycle;Signal;HPM_P1;HPM_P2
2022/03/02 00:01:04;;;;;;;20.33;16.20;;;3.60;1.00;4.00;101514.00;;;;5026877;28;20464;-81
2022/03/02 00:03:33;;;;;;;18.30;14.00;;;3.50;1.00;4.10;101517.00;;;;5025598;28;20516;-82
2022/03/02 00:06:02;;;;;;;16.57;13.97;;;3.50;1.00;3.90;101491.00;;;;5018457;28;20505;-87
2022/03/02 00:08:30;;;;;;;21.00;14.37;;;3.40;1.00;3.80;101506.00;;;;5015411;28;20458;-83
2022/03/02 00:10:58;;;;;;;19.77;14.63;;;3.30;1.00;3.80;101497.00;;;;5012133;28;20492;-85
2022/03/02 00:13:28;;;;;;;15.07;12.70;;;3.30;1.00;3.90;101523.00;;;;5011125;28;20490;-82
2022/03/02 00:15:57;;;;;;;16.27;11.80;;;3.20;1.00;3.90;101513.00;;;;5008490;28;20493;-83
2022/03/02 00:18:26;;;;;;;17.47;13.90;;;3.20;1.00;3.80;101532.00;;;;5006014;28;20453;-79
2022/03/02 00:20:55;;;;;;;14.57;12.03;;;3.20;1.00;3.80;101507.00;;;;5014977;28;21097;-81
2022/03/02 00:23:23;;;;;;;14.50;11.87;;;3.20;1.00;3.70;101518.00;;;;5005120;28;21017;-82
2022/03/02 00:25:51;;;;;;;16.03;13.57;;;3.50;1.00;3.60;101529.00;;;;5006601;28;22244;-83
2022/03/02 00:28:20;;;;;;;14.87;12.63;;;3.00;1.00;3.60;101515.00;;;;5020560;28;21524;-82
2022/03/02 00:30:50;;;;;;;15.63;14.00;;;3.00;1.00;3.40;101503.00;;;;5021149;28;20470;-79
2022/03/02 00:33:19;;;;;;;19.40;14.13;;;2.90;1.00;3.30;101503.00;;;;5013267;28;20493;-81
2022/03/02 00:35:47;;;;;;;17.07;13.23;;;2.90;1.00;3.30;101517.00;;;;5013932;28;20458;-82
2022/03/02 00:38:16;;;;;;;18.13;13.17;;;2.80;1.00;3.20;101501.00;;;;5006725;28;20450;-81
2022/03/02 00:40:44;;;;;;;14.67;11.47;;;2.70;1.00;3.30;101489.00;;;;5024419;28;20529;-83
2022/03/02 00:43:13;;;;;;;19.67;12.57;;;2.70;1.00;3.20;101486.00;;;;5030784;28;20450;-86
2022/03/02 00:45:41;;;;;;;14.20;11.90;;;2.70;1.00;3.20;101494.00;;;;5032343;28;20453;-85
2022/03/02 00:48:11;;;;;;;17.00;12.70;;;2.70;1.00;3.10;101491.00;;;;5034339;28;20462;-86
2022/03/02 00:50:41;;;;;;;15.03;12.33;;;2.60;1.00;3.20;101486.00;;;;5031037;28;20550;-83
2022/03/02 00:53:10;;;;;;;14.07;11.90;;;2.60;1.00;3.20;101477.00;;;;5039564;28;20515;-85
2022/03/02 00:55:39;;;;;;;16.67;12.23;;;2.60;1.00;3.10;101467.00;;;;5035048;28;20537;-84
2022/03/02 00:58:08;;;;;;;16.00;12.87;;;2.60;1.00;3.10;101477.00;;;;5031164;28;20548;-81
2022/03/02 01:00:36;;;;;;;16.37;12.00;;;2.60;1.00;3.10;101466.00;;;;5017568;28;20522;-81
2022/03/02 01:03:06;;;;;;;16.97;13.30;;;2.60;1.00;3.10;101456.00;;;;5014936;28;20462;-83
2022/03/02 01:05:35;;;;;;;20.20;13.80;;;2.60;1.00;3.10;101448.00;;;;5023841;28;20453;-83
2022/03/02 01:08:06;;;;;;;18.50;14.90;;;2.50;1.00;3.00;101446.00;;;;5038713;28;20442;-83
2022/03/02 01:10:35;;;;;;;14.93;12.87;;;2.60;1.00;3.00;101455.00;;;;5012936;28;20828;-82
2022/03/02 01:13:03;;;;;;;16.97;13.40;;;2.50;1.00;2.90;101446.00;;;;5009351;28;20460;-83
2022/03/02 01:15:33;;;;;;;21.97;13.70;;;2.40;1.00;2.80;101454.00;;;;5015329;28;20489;-80
2022/03/02 01:18:01;;;;;;;15.10;13.13;;;2.40;1.00;2.80;101441.00;;;;5011905;28;20457;-81
2022/03/02 01:20:30;;;;;;;16.63;13.60;;;2.30;1.00;2.80;101432.00;;;;5007893;28;20549;-81
2022/03/02 01:23:00;;;;;;;14.90;12.13;;;2.30;1.00;2.60;101426.00;;;;5006904;28;20548;-81
2022/03/02 01:25:28;;;;;;;16.67;12.53;;;2.20;1.00;2.60;101420.00;;;;5007521;28;20513;-80
2022/03/02 01:27:57;;;;;;;18.60;13.50;;;2.10;1.00;2.70;101429.00;;;;5008860;28;21204;-83
2022/03/02 01:30:25;;;;;;;16.40;12.90;;;2.50;1.00;2.60;101448.00;;;;5014524;28;20501;-81
2022/03/02 01:32:54;;;;;;;18.83;13.53;;;2.10;1.00;2.60;101402.00;;;;5007989;28;20460;-81
2022/03/02 01:35:22;;;;;;;20.30;14.27;;;2.10;1.00;2.60;101413.00;;;;5017346;28;20521;-83
2022/03/02 01:37:51;;;;;;;15.40;13.50;;;2.10;1.00;2.70;101399.00;;;;5024096;28;20465;-84
2022/03/02 01:40:21;;;;;;;16.80;14.17;;;2.10;1.00;2.70;101406.00;;;;5007818;28;20482;-80
2022/03/02 01:42:49;;;;;;;21.10;14.13;;;2.10;1.00;2.50;101388.00;;;;5007292;28;20452;-82
2022/03/02 01:45:19;;;;;;;18.80;13.17;;;2.10;1.00;2.60;101390.00;;;;5004317;28;20520;-83
2022/03/02 01:47:48;;;;;;;17.63;13.40;;;2.10;1.00;2.60;101393.00;;;;5005165;28;20454;-80
2022/03/02 01:50:18;;;;;;;18.77;13.80;;;2.10;1.00;2.60;101402.00;;;;5022913;28;20628;-79
2022/03/02 01:52:46;;;;;;;17.27;14.07;;;2.10;1.00;2.60;101402.00;;;;5031314;28;20448;-81
2022/03/02 01:55:16;;;;;;;16.03;13.60;;;2.10;1.00;2.60;101344.00;;;;5024502;28;20504;-79
2022/03/02 01:57:46;;;;;;;21.43;14.50;;;2.10;1.00;2.50;101392.00;;;;5019050;28;20454;-81
2022/03/02 02:00:19;;;;;;;18.80;14.10;;;2.10;1.00;2.50;101317.00;;;;5007478;28;20875;-83
2022/03/02 02:02:51;;;;;;;16.90;14.30;;;2.10;1.00;2.60;101389.00;;;;5007873;28;20454;-83
2022/03/02 02:05:20;;;;;;;18.77;14.37;;;2.10;1.00;2.60;101379.00;;;;5007267;28;20489;-81
2022/03/02 02:07:49;;;;;;;16.67;13.40;;;1.80;1.00;2.60;101369.00;;;;5005518;28;20456;-82
2022/03/02 02:10:18;;;;;;;23.30;15.80;;;2.10;1.00;2.40;101373.00;;;;5005705;28;20457;-83
2022/03/02 02:12:48;;;;;;;17.87;15.47;;;2.10;1.00;2.50;101336.00;;;;5001999;28;20492;-82
2022/03/02 02:15:16;;;;;;;17.87;14.37;;;2.00;1.00;2.50;101371.00;;;;5010851;28;20537;-83
2022/03/02 02:17:45;;;;;;;18.87;13.83;;;2.00;1.00;2.50;101356.00;;;;5010663;28;20462;-81
2022/03/02 02:20:14;;;;;;;19.57;14.00;;;2.00;1.00;2.40;101350.00;;;;5008732;28;20484;-81
2022/03/02 02:22:47;;;;;;;21.30;14.50;;;2.00;1.00;2.40;101343.00;;;;5008422;28;20481;-81
2022/03/02 02:25:16;;;;;;;17.60;13.60;;;1.90;1.00;2.40;101346.00;;;;5005866;28;20473;-84
2022/03/02 02:27:49;;;;;;;15.63;13.47;;;1.90;1.00;2.40;101331.00;;;;5022831;28;20457;-86
2022/03/02 02:30:18;;;;;;;19.17;14.60;;;1.90;1.00;2.40;101366.00;;;;5009529;28;20544;-81
2022/03/02 02:32:46;;;;;;;15.50;13.27;;;1.90;1.00;2.40;101361.00;;;;5006291;28;20486;-81
2022/03/02 02:35:15;;;;;;;17.87;14.83;;;1.90;1.00;2.40;101367.00;;;;5012503;28;20539;-80
2022/03/02 02:37:45;;;;;;;17.40;13.20;;;1.90;1.00;2.30;101337.00;;;;5004803;28;21003;-83
2022/03/02 02:40:16;;;;;;;18.00;14.30;;;2.10;1.00;2.30;101341.00;;;;5004077;28;20461;-80
2022/03/02 02:42:45;;;;;;;16.77;14.83;;;1.90;1.00;2.30;101346.00;;;;5003346;28;20453;-80
2022/03/02 02:45:17;;;;;;;20.63;14.37;;;1.90;1.00;2.30;66739.00;;;;5003161;28;20825;-81
2022/03/02 02:47:45;;;;;;;17.10;14.10;;;1.80;1.00;2.30;101347.00;;;;5012578;28;20458;-83
2022/03/02 02:50:21;;;;;;;17.10;14.03;;;1.90;1.00;2.30;101372.00;;;;5005871;28;21324;-82
2022/03/02 02:52:52;;;;;;;20.20;14.37;;;1.80;1.00;2.30;101337.00;;;;5011900;28;21201;-83
2022/03/02 02:55:22;;;;;;;16.73;13.70;;;1.90;1.00;2.30;101321.00;;;;4997205;28;20481;-82
2022/03/02 02:57:51;;;;;;;17.97;14.50;;;1.80;1.00;2.30;101349.00;;;;5013427;28;20457;-83
2022/03/02 03:00:22;;;;;;;17.63;13.90;;;1.90;1.00;2.30;101325.00;;;;4998237;28;21008;-82
2022/03/02 03:02:53;;;;;;;16.60;12.63;;;1.90;1.00;2.30;101345.00;;;;5007196;28;20454;-82
2022/03/02 03:05:25;;;;;;;14.83;13.23;;;1.90;1.00;2.30;101328.00;;;;5004826;28;20481;-82
2022/03/02 03:07:56;;;;;;;20.90;14.87;;;2.20;1.00;2.40;101325.00;;;;5017809;28;20461;-80
2022/03/02 03:10:25;;;;;;;15.30;13.27;;;1.90;1.00;2.40;101335.00;;;;5021059;28;20454;-78
2022/03/02 03:12:54;;;;;;;19.00;14.27;;;1.90;1.00;2.30;101330.00;;;;5028498;28;20445;-79
2022/03/02 03:15:23;;;;;;;17.63;14.03;;;1.90;1.00;2.30;101342.00;;;;5017317;28;20496;-84
2022/03/02 03:17:53;;;;;;;16.47;13.10;;;1.90;1.00;2.40;101338.00;;;;5001846;28;20456;-82
2022/03/02 03:20:24;;;;;;;19.40;13.67;;;1.90;1.00;2.40;101330.00;;;;5034637;28;20469;-78
2022/03/02 03:22:56;;;;;;;16.70;13.70;;;2.00;1.00;2.40;101330.00;;;;5032526;28;20470;-82
2022/03/02 03:25:25;;;;;;;19.50;13.90;;;2.00;1.00;2.50;101322.00;;;;5026371;28;20477;-83
2022/03/02 03:27:54;;;;;;;16.20;13.07;;;2.10;1.00;2.60;101321.00;;;;5025500;28;20453;-82
2022/03/02 03:30:25;;;;;;;17.80;13.87;;;2.10;1.00;2.60;101310.00;;;;5031580;28;20512;-83
2022/03/02 03:32:54;;;;;;;17.83;13.53;;;2.20;1.00;2.70;101325.00;;;;5027330;28;20454;-82
2022/03/02 03:35:26;;;;;;;17.13;13.60;;;2.30;1.00;2.80;101306.00;;;;5042724;28;20549;-79
2022/03/02 03:37:56;;;;;;;15.13;13.60;;;2.60;1.00;2.80;101307.00;;;;5035194;28;20422;-80
2022/03/02 03:40:25;;;;;;;15.57;12.67;;;2.40;1.00;2.90;101309.00;;;;5044047;28;20465;-83
2022/03/02 03:42:56;;;;;;;17.67;13.97;;;2.50;1.00;3.00;101305.00;;;;5018515;28;20457;-83
2022/03/02 03:45:25;;;;;;;19.30;13.40;;;2.60;1.00;3.00;101313.00;;;;5018202;28;20473;-83
2022/03/02 03:47:54;;;;;;;25.33;13.87;;;2.60;1.00;3.10;101306.00;;;;5023466;28;20472;-83
2022/03/02 03:50:23;;;;;;;18.33;14.30;;;2.60;1.00;3.00;101304.00;;;;5007768;28;20458;-80
2022/03/02 03:52:51;;;;;;;18.03;13.67;;;2.70;1.00;3.00;101312.00;;;;5006491;28;20849;-82
2022/03/02 03:55:21;;;;;;;17.80;14.30;;;2.60;1.00;3.00;101296.00;;;;5022731;28;21038;-84
2022/03/02 03:57:49;;;;;;;19.63;14.30;;;2.70;1.00;2.90;101309.00;;;;5007589;28;20466;-79
2022/03/02 04:00:20;;;;;;;18.33;14.00;;;2.60;1.00;2.90;101305.00;;;;5024102;28;20541;-82
2022/03/02 04:02:48;;;;;;;20.63;14.50;;;2.60;1.00;2.90;101317.00;;;;5007592;28;20992;-82
2022/03/02 04:05:18;;;;;;;20.60;15.73;;;2.50;1.00;3.00;101302.00;;;;5006866;28;20846;-82
2022/03/02 04:07:48;;;;;;;21.30;14.53;;;2.80;1.00;2.90;101308.00;;;;5013746;28;20458;-88
2022/03/02 04:10:17;;;;;;;15.80;13.03;;;2.50;1.00;2.90;101305.00;;;;5035221;28;20464;-82
2022/03/02 04:12:47;;;;;;;15.47;13.40;;;2.50;1.00;2.90;101310.00;;;;5019273;28;20540;-84
2022/03/02 04:15:16;;;;;;;17.67;13.37;;;2.60;1.00;3.00;101307.00;;;;5026741;28;20552;-83
2022/03/02 04:17:46;;;;;;;17.03;13.83;;;2.60;1.00;3.00;101278.00;;;;5025670;28;20454;-88
2022/03/02 04:20:14;;;;;;;20.33;15.60;;;2.60;1.00;3.10;101302.00;;;;5017590;28;21021;-82
2022/03/02 04:22:43;;;;;;;17.20;13.97;;;3.00;1.00;3.00;101317.00;;;;5030214;28;21174;-79
2022/03/02 04:25:12;;;;;;;15.50;13.47;;;2.70;1.00;3.00;101307.00;;;;5012658;28;21045;-81
2022/03/02 04:27:40;;;;;;;19.23;14.37;;;2.70;1.00;3.00;101282.00;;;;5002747;28;20477;-80
2022/03/02 04:30:13;;;;;;;18.27;14.20;;;2.70;1.00;3.10;101280.00;;;;5013617;28;20471;-81
2022/03/02 04:32:42;;;;;;;21.20;15.10;;;2.70;1.00;3.10;101297.00;;;;5002827;28;20995;-84
2022/03/02 04:35:13;;;;;;;16.17;14.40;;;2.70;1.00;3.10;101292.00;;;;5004943;28;20533;-81
2022/03/02 04:37:43;;;;;;;17.97;13.70;;;2.70;1.00;3.20;101297.00;;;;5010820;28;20489;-81
2022/03/02 04:40:14;;;;;;;15.37;13.67;;;2.80;1.00;3.10;101281.00;;;;5018943;28;20458;-82
2022/03/02 04:42:43;;;;;;;22.20;14.23;;;2.80;1.00;3.10;101068.00;;;;5001185;28;20844;-80
2022/03/02 04:45:13;;;;;;;19.93;14.03;;;2.70;1.00;3.10;101302.00;;;;5019184;28;20488;-80
2022/03/02 04:47:42;;;;;;;19.10;13.40;;;3.00;1.00;3.10;101304.00;;;;4998340;28;21406;-80
2022/03/02 04:50:12;;;;;;;18.80;13.57;;;2.80;1.00;3.20;101298.00;;;;5022926;28;20449;-83
2022/03/02 04:52:41;;;;;;;21.43;13.97;;;2.80;1.00;3.20;101301.00;;;;4998274;28;20450;-79
2022/03/02 04:55:10;;;;;;;17.53;13.13;;;3.20;1.00;3.30;101309.00;;;;5015353;28;20490;-79
2022/03/02 04:57:41;;;;;;;18.67;13.80;;;2.90;1.00;3.20;101294.00;;;;5013828;28;20573;-80
2022/03/02 05:00:16;;;;;;;16.20;13.30;;;2.90;1.00;3.30;101280.00;;;;5006572;28;20465;-82
2022/03/02 05:02:45;;;;;;;17.10;13.17;;;2.90;1.00;3.30;101267.00;;;;4997883;28;20464;-81
2022/03/02 05:05:19;;;;;;;14.30;11.17;;;3.00;1.00;3.30;101286.00;;;;5006346;28;20472;-83
2022/03/02 05:07:48;;;;;;;14.10;12.27;;;3.20;1.00;3.30;101273.00;;;;5006518;28;21089;-85
2022/03/02 05:10:19;;;;;;;16.00;13.20;;;3.00;1.00;3.30;101273.00;;;;5008628;28;20453;-81
2022/03/02 05:12:48;;;;;;;16.83;13.63;;;3.00;1.00;3.40;101281.00;;;;5007267;28;20465;-82
2022/03/02 05:15:19;;;;;;;13.83;12.00;;;3.10;1.00;3.40;101276.00;;;;5013604;28;20473;-81
2022/03/02 05:17:49;;;;;;;14.53;12.33;;;3.10;1.00;3.40;101285.00;;;;5014506;28;20462;-80
2022/03/02 05:20:20;;;;;;;15.97;13.13;;;3.00;1.00;3.40;101273.00;;;;5014465;28;20454;-80
2022/03/02 05:22:50;;;;;;;18.43;12.30;;;3.00;1.00;3.40;101272.00;;;;5000135;28;21245;-79
2022/03/02 05:25:19;;;;;;;17.80;12.93;;;3.10;1.00;3.40;101270.00;;;;5007428;28;20561;-80
2022/03/02 05:27:50;;;;;;;16.97;13.20;;;3.00;1.00;3.40;101266.00;;;;5007887;28;20461;-80
2022/03/02 05:30:21;;;;;;;18.20;12.60;;;3.40;1.00;3.40;101262.00;;;;5005815;28;20488;-80
2022/03/02 05:32:49;;;;;;;15.53;12.80;;;3.10;1.00;3.40;101257.00;;;;5024704;28;20525;-87
2022/03/02 05:35:18;;;;;;;16.30;11.50;;;3.10;1.00;3.40;101245.00;;;;5018452;28;20847;-80
2022/03/02 05:37:47;;;;;;;21.57;13.67;;;3.10;1.00;3.50;101235.00;;;;4996282;28;20493;-83
2022/03/02 05:40:18;;;;;;;15.60;12.50;;;3.10;1.00;3.50;101246.00;;;;5014578;28;21059;-78
2022/03/02 05:42:53;;;;;;;17.20;13.20;;;3.20;1.00;3.50;101259.00;;;;4998068;28;20489;-81
2022/03/02 05:45:23;;;;;;;18.20;13.37;;;3.20;1.00;3.50;101273.00;;;;5003762;28;20470;-81
2022/03/02 05:47:52;;;;;;;15.23;11.17;;;3.20;1.00;3.50;67013.00;;;;5004997;28;20447;-80
2022/03/02 05:50:20;;;;;;;22.03;12.40;;;3.10;1.00;3.40;101279.00;;;;4996248;28;20450;-82
2022/03/02 05:52:49;;;;;;;15.13;11.73;;;3.10;1.00;3.50;101278.00;;;;5006327;28;20461;-79
2022/03/02 05:55:17;;;;;;;22.07;13.50;;;3.10;1.00;3.50;101274.00;;;;4997396;28;20477;-80
2022/03/02 05:57:46;;;;;;;14.17;12.03;;;3.20;1.00;3.50;101270.00;;;;5027709;28;20477;-79
2022/03/02 06:00:15;;;;;;;13.50;11.53;;;3.20;1.00;3.60;101286.00;;;;5020049;28;20474;-82
2022/03/02 06:02:45;;;;;;;18.10;13.70;;;3.30;1.00;3.80;101287.00;;;;5029808;28;20450;-81
2022/03/02 06:05:14;;;;;;;16.23;12.40;;;3.40;1.00;3.70;101272.00;;;;5013138;28;20484;-81
2022/03/02 06:07:45;;;;;;;24.10;16.27;;;3.40;1.00;3.70;101270.00;;;;5026230;28;20977;-84
2022/03/02 06:10:16;;;;;;;30.60;16.63;;;3.40;1.00;3.70;101279.00;;;;5017635;28;20458;-82
2022/03/02 06:12:45;;;;;;;18.00;13.57;;;3.50;1.00;3.80;101259.00;;;;5006671;28;20497;-88
2022/03/02 06:15:14;;;;;;;17.10;13.57;;;3.50;1.00;3.80;101268.00;;;;5028689;28;20893;-82
2022/03/02 06:17:52;;;;;;;27.97;15.27;;;3.50;1.00;3.90;67091.00;;;;5210927;22;20542;31
2022/03/02 06:20:21;;;;;;;27.23;14.13;;;3.60;1.00;3.90;101258.00;;;;4999911;28;20470;-81
2022/03/02 06:22:50;;;;;;;21.03;12.70;;;3.60;1.00;3.90;101267.00;;;;5005216;28;20589;-80
2022/03/02 06:25:20;;;;;;;25.27;14.87;;;3.60;1.00;3.90;101275.00;;;;4997741;28;20458;-83
2022/03/02 06:27:48;;;;;;;20.07;14.10;;;3.60;1.00;3.90;101266.00;;;;4995454;28;20455;-84
2022/03/02 06:30:17;;;;;;;24.00;14.57;;;3.60;1.00;3.90;101274.00;;;;4993886;28;20458;-81
2022/03/02 06:32:45;;;;;;;23.30;15.63;;;4.00;1.00;4.10;101272.00;;;;4995290;28;20450;-81
2022/03/02 06:35:15;;;;;;;26.90;16.23;;;3.70;1.00;4.10;101282.00;;;;4992907;28;20966;-82
2022/03/02 06:37:43;;;;;;;25.00;15.50;;;3.80;1.00;4.00;101255.00;;;;4987231;28;20479;-81
2022/03/02 06:40:14;;;;;;;16.00;11.97;;;3.80;1.00;4.20;101265.00;;;;4992590;28;20972;-81
2022/03/02 06:43:01;;;;;;;21.07;11.57;;;3.90;1.00;4.20;101265.00;;;;4987106;28;21059;-82
2022/03/02 06:45:50;;;;;;;15.90;10.70;;;3.90;1.00;4.20;101257.00;;;;4995081;28;20651;-82
2022/03/02 06:48:26;;;;;;;16.50;12.20;;;3.90;1.00;4.20;101263.00;;;;4994744;28;20464;-86
2022/03/02 06:51:02;;;;;;;13.30;10.90;;;3.90;1.00;4.30;101249.00;;;;5005733;28;20465;-82
2022/03/02 06:53:35;;;;;;;12.37;10.27;;;4.00;1.00;4.40;101216.00;;;;4987193;28;20509;-79
2022/03/02 06:56:08;;;;;;;14.80;10.63;;;4.10;1.00;4.40;101252.00;;;;4997096;28;21102;-85
2022/03/02 06:58:42;;;;;;;12.90;11.03;;;4.20;1.00;4.60;101279.00;;;;5008577;28;20529;-81
2022/03/02 07:01:13;;;;;;;14.43;10.83;;;4.30;1.00;4.50;101254.00;;;;5005092;28;20501;-80
2022/03/02 07:03:47;;;;;;;15.33;10.80;;;4.40;1.00;4.70;101268.00;;;;5001830;28;20509;-80
2022/03/02 07:06:17;;;;;;;14.60;10.73;;;4.50;1.00;4.70;101255.00;;;;5001864;28;20446;-83
2022/03/02 07:08:48;;;;;;;15.30;10.87;;;4.50;1.00;4.80;101266.00;;;;5007391;28;20455;-80
2022/03/02 07:11:17;;;;;;;16.03;11.40;;;4.60;1.00;4.90;101266.00;;;;5022108;28;20489;-80
2022/03/02 07:13:46;;;;;;;18.60;11.13;;;4.80;1.00;5.00;101260.00;;;;5010338;28;20467;-86
2022/03/02 07:16:16;;;;;;;23.03;10.13;;;4.70;1.00;5.00;101288.00;;;;5020068;28;20469;-84
2022/03/02 07:18:45;;;;;;;15.90;10.53;;;4.80;1.00;5.20;101276.00;;;;5007193;28;20501;-83
2022/03/02 07:21:17;;;;;;;13.10;10.20;;;5.30;1.00;5.30;101253.00;;;;5010799;28;20473;-85
2022/03/02 07:23:55;;;;;;;17.47;10.30;;;5.10;1.00;5.40;101241.00;;;;5002304;28;20852;-82
2022/03/02 07:26:25;;;;;;;29.37;10.87;;;5.20;1.00;5.50;101254.00;;;;5000447;28;20501;-81
2022/03/02 07:28:56;;;;;;;11.37;9.40;;;5.30;1.00;5.40;101282.00;;;;5005093;28;20459;-81
2022/03/02 07:31:25;;;;;;;16.03;10.00;;;5.30;1.00;5.60;101277.00;;;;5004628;28;20481;-82
2022/03/02 07:34:07;;;;;;;14.30;9.43;;;5.40;1.00;5.80;101272.00;;;;5004887;28;20477;-80
2022/03/02 07:36:37;;;;;;;14.80;9.20;;;5.50;1.00;5.80;101284.00;;;;5005956;28;20454;-84
2022/03/02 07:39:06;;;;;;;13.80;9.50;;;5.60;1.00;5.80;101275.00;;;;4998460;28;20470;-81
2022/03/02 07:41:35;;;;;;;10.87;8.70;;;5.90;1.00;5.80;101256.00;;;;5023327;28;20458;-82
2022/03/02 07:44:06;;;;;;;11.47;8.80;;;5.60;1.00;5.80;101281.00;;;;5006024;28;20496;-85
2022/03/02 07:46:35;;;;;;;11.77;9.00;;;5.60;1.00;5.90;101264.00;;;;5011474;28;20453;-83
2022/03/02 07:49:04;;;;;;;13.23;9.07;;;5.60;1.00;5.90;101260.00;;;;5006330;28;20530;-82
2022/03/02 07:51:37;;;;;;;11.57;8.60;;;5.70;1.00;5.90;101273.00;;;;5014051;28;20545;-79
2022/03/02 07:54:06;;;;;;;9.77;8.00;;;5.70;1.00;6.10;101272.00;;;;5015119;28;20467;-79
2022/03/02 07:56:35;;;;;;;10.83;7.90;;;5.80;1.00;6.10;101280.00;;;;5015532;28;20514;-78
2022/03/02 07:59:06;;;;;;;9.97;8.20;;;5.80;1.00;6.20;101282.00;;;;5008277;28;20442;-81
2022/03/02 08:01:41;;;;;;;9.77;8.60;;;5.90;1.00;6.30;101280.00;;;;5008608;28;20465;-83
2022/03/02 08:04:11;;;;;;;9.60;7.90;;;6.10;1.00;6.40;101260.00;;;;5016831;28;20483;-79
2022/03/02 08:06:42;;;;;;;11.67;8.37;;;6.20;1.00;6.60;101265.00;;;;5014537;28;20455;-81
2022/03/02 08:09:13;;;;;;;11.17;7.90;;;6.40;1.00;6.60;101265.00;;;;5014686;28;20526;-81
2022/03/02 08:11:41;;;;;;;12.17;7.83;;;6.40;1.00;6.80;101255.00;;;;5030502;28;20549;-81
2022/03/02 08:14:10;;;;;;;12.20;8.20;;;6.60;1.00;6.90;101260.00;;;;5008689;28;20491;-78
2022/03/02 08:16:38;;;;;;;13.30;8.77;;;6.70;1.00;7.10;101272.00;;;;5016411;28;20489;-80
2022/03/02 08:19:08;;;;;;;12.10;8.23;;;6.80;1.00;7.20;101256.00;;;;5027766;28;20489;-80
2022/03/02 08:21:38;;;;;;;10.70;8.90;;;7.40;1.00;7.20;101267.00;;;;5012343;28;20455;-82
2022/03/02 08:24:17;;;;;;;9.50;7.60;;;7.00;1.00;7.20;101249.00;;;;5013823;28;21084;-86
2022/03/02 08:27:01;;;;;;;12.73;8.47;;;7.00;1.00;7.20;101265.00;;;;5008674;28;20439;-85
2022/03/02 08:29:32;;;;;;;13.70;8.60;;;7.00;1.00;7.20;101269.00;;;;4995514;28;20470;-85
2022/03/02 08:32:04;;;;;;;11.73;9.10;;;7.10;1.00;7.20;101258.00;;;;4995746;28;20450;-85
2022/03/02 08:34:43;;;;;;;14.40;8.20;;;7.10;1.00;7.20;101261.00;;;;4993291;28;20865;-83
2022/03/02 08:37:14;;;;;;;12.33;8.83;;;7.40;1.00;7.30;101271.00;;;;5006692;28;20488;-83
2022/03/02 08:39:44;;;;;;;13.07;9.10;;;7.20;1.00;7.50;101259.00;;;;4993431;28;20454;-85
2022/03/02 08:42:13;;;;;;;17.13;10.40;;;7.30;1.00;7.50;101269.00;;;;4986483;28;21206;-84
2022/03/02 08:44:42;;;;;;;11.60;8.80;;;7.40;1.00;7.60;101271.00;;;;4982489;28;20475;-83
2022/03/02 08:47:10;;;;;;;15.67;9.03;;;7.50;1.00;7.70;101278.00;;;;4997328;28;20459;-80
2022/03/02 08:49:40;;;;;;;11.87;8.50;;;7.60;1.00;7.80;101255.00;;;;5021592;28;20553;-85
2022/03/02 08:52:19;;;;;;;14.17;9.00;;;7.70;1.00;7.90;101277.00;;;;5012032;28;21654;-80
2022/03/02 08:54:51;;;;;;;14.77;8.77;;;7.80;1.00;7.90;68008.00;;;;5015799;28;20486;-82
2022/03/02 08:57:21;;;;;;;11.53;9.20;;;7.80;1.00;7.70;101234.00;;;;5017139;28;20442;-81
2022/03/02 08:59:52;;;;;;;17.10;9.53;;;7.80;1.00;7.80;101265.00;;;;5018035;28;20430;-82
2022/03/02 09:02:24;;;;;;;11.97;9.90;;;7.60;1.00;7.80;101229.00;;;;5014375;28;20446;-84
2022/03/02 09:05:00;;;;;;;15.80;10.00;;;7.70;1.00;7.60;101253.00;;;;5010607;28;20471;-82
2022/03/02 09:07:29;;;;;;;11.53;9.10;;;8.00;1.00;7.70;101275.00;;;;5008122;28;20490;-82
2022/03/02 09:10:00;;;;;;;12.30;9.20;;;7.60;1.00;7.60;101024.00;;;;4998772;28;20457;-81
2022/03/02 09:12:29;;;;;;;14.80;8.47;;;7.50;1.00;7.70;101268.00;;;;5005665;28;20462;-82
2022/03/02 09:14:58;;;;;;;12.90;8.70;;;7.50;1.00;7.70;101177.00;;;;5006851;28;20470;-83
2022/03/02 09:17:28;;;;;;;11.37;7.90;;;7.50;1.00;7.70;101184.00;;;;5006046;28;20726;-83
2022/03/02 09:19:57;;;;;;;10.30;8.37;;;7.60;1.00;217.30;160043.00;;;;5007894;28;20459;-80
2022/03/02 09:22:28;;;;;;;11.63;9.50;;;7.60;1.00;7.90;101275.00;;;;5009993;28;20474;-81
2022/03/02 09:24:58;;;;;;;13.07;10.30;;;7.70;1.00;7.80;101279.00;;;;5025992;28;22257;-80
2022/03/02 09:27:31;;;;;;;11.13;9.00;;;7.70;1.00;8.00;101273.00;;;;5009244;28;20443;-82
2022/03/02 09:30:02;;;;;;;11.03;9.67;;;7.80;1.00;8.00;101293.00;;;;5009265;28;20501;-81
2022/03/02 09:32:33;;;;;;;10.10;8.50;;;7.80;1.00;7.90;101260.00;;;;5019505;28;20434;-80
2022/03/02 09:35:03;;;;;;;14.43;10.53;;;7.70;1.00;7.90;101258.00;;;;5011846;28;21094;-81
2022/03/02 09:37:35;;;;;;;13.20;9.53;;;7.80;1.00;8.10;101268.00;;;;5005872;28;20463;-81
2022/03/02 09:40:07;;;;;;;12.83;10.33;;;7.90;1.00;8.20;101233.00;;;;5001725;28;20939;-83
2022/03/02 09:42:46;;;;;;;11.60;9.37;;;8.00;1.00;8.30;101234.00;;;;4990366;28;20426;-82
2022/03/02 09:45:16;;;;;;;12.63;8.30;;;8.20;1.00;8.40;101254.00;;;;4986353;28;20929;-83
2022/03/02 09:47:52;;;;;;;13.17;10.00;;;8.20;1.00;8.50;101222.00;;;;4987221;28;20455;-80
2022/03/02 09:50:22;;;;;;;11.60;9.03;;;8.20;1.00;8.60;101226.00;;;;4988954;28;20489;-81
2022/03/02 09:52:54;;;;;;;15.33;11.47;;;8.30;1.00;8.70;101243.00;;;;4987541;28;20454;-84
2022/03/02 09:55:24;;;;;;;10.40;8.97;;;8.50;1.00;8.80;101259.00;;;;4993033;28;20566;-82
2022/03/02 09:57:56;;;;;;;11.87;9.40;;;8.50;1.00;8.90;101268.00;;;;4996683;28;20471;-82
2022/03/02 10:00:26;;;;;;;10.40;9.30;;;8.60;1.00;9.00;101263.00;;;;4981114;28;22491;-82
2022/03/02 10:02:59;;;;;;;12.40;10.00;;;8.80;1.00;9.00;101262.00;;;;4987633;28;20485;-84
2022/03/02 10:05:31;;;;;;;11.90;9.53;;;8.80;1.00;9.10;101239.00;;;;4989180;28;20478;-84
2022/03/02 10:08:03;;;;;;;12.67;9.20;;;9.00;1.00;9.20;101257.00;;;;4982569;28;20470;-84
2022/03/02 10:10:37;;;;;;;11.77;9.00;;;9.10;1.00;9.30;101263.00;;;;4999688;28;20470;-81
2022/03/02 10:13:08;;;;;;;9.83;8.83;;;9.10;1.00;9.10;101242.00;;;;4989594;28;20469;-83
2022/03/02 10:15:39;;;;;;;9.57;7.60;;;9.00;1.00;8.90;101274.00;;;;4995646;28;20474;-80
2022/03/02 10:18:11;;;;;;;14.23;9.53;;;8.90;1.00;9.00;101259.00;;;;4990454;28;20481;-83
2022/03/02 10:20:42;;;;;;;9.87;7.80;;;8.80;1.00;9.10;101268.00;;;;5014923;28;20968;-81
2022/03/02 10:23:34;;;;;;;11.10;8.43;;;9.00;1.00;9.20;101217.00;;;;5004373;28;20457;-81
2022/03/02 10:26:19;;;;;;;11.43;9.33;;;9.00;1.00;9.20;101229.00;;;;5009415;28;20458;-82
2022/03/02 10:29:00;;;;;;;11.50;8.87;;;9.10;1.00;9.20;101247.00;;;;4997254;28;20742;-79
2022/03/02 10:31:45;;;;;;;11.10;8.80;;;9.10;1.00;9.10;101232.00;;;;5014564;28;20446;-79
2022/03/02 10:34:34;;;;;;;10.03;8.00;;;9.00;1.00;9.00;101261.00;;;;5005553;28;20478;-80
2022/03/02 10:37:31;;;;;;;9.27;8.30;;;8.80;1.00;9.10;101252.00;;;;5004280;28;20450;-78
2022/03/02 10:40:16;;;;;;;10.20;8.50;;;8.80;1.00;217.30;160389.00;;;;5001575;28;20480;-80
2022/03/02 10:42:53;;;;;;;12.13;10.57;;;8.70;1.00;8.90;101233.00;;;;5011474;28;20451;-83
2022/03/02 10:45:25;;;;;;;9.37;8.40;;;8.70;1.00;8.80;101240.00;;;;4986301;28;20529;-80
2022/03/02 10:48:03;;;;;;;10.77;9.50;;;8.60;1.00;8.70;101233.00;;;;4992578;28;20566;-81
2022/03/02 10:50:35;;;;;;;14.13;9.80;;;8.40;1.00;8.40;101233.00;;;;4998030;28;20459;-81
2022/03/02 10:53:07;;;;;;;10.43;9.00;;;8.20;1.00;8.10;101250.00;;;;4992602;28;20471;-80
2022/03/02 10:55:36;;;;;;;13.10;9.30;;;7.90;1.00;7.80;101225.00;;;;4988337;28;21380;-81
2022/03/02 10:58:07;;;;;;;9.77;8.37;;;7.60;1.00;7.60;101238.00;;;;4990167;28;20505;-83
2022/03/02 11:00:36;;;;;;;9.60;8.60;;;7.40;1.00;7.60;101229.00;;;;4990745;28;20489;-82
2022/03/02 11:03:07;;;;;;;13.97;10.33;;;7.30;1.00;7.60;101199.00;;;;4984223;28;20461;-82
2022/03/02 11:05:37;;;;;;;9.93;8.60;;;7.30;1.00;7.60;101225.00;;;;4987752;28;20450;-84
2022/03/02 11:08:06;;;;;;;12.77;8.70;;;7.30;1.00;7.70;101199.00;;;;5005760;28;20478;-83
2022/03/02 11:10:37;;;;;;;12.77;8.60;;;7.70;1.00;7.80;101207.00;;;;4989016;28;20459;-82
2022/03/02 11:13:12;;;;;;;12.60;9.30;;;7.40;1.00;8.00;101205.00;;;;4994334;28;20574;-84